Pittsburgh, PA (15215)

9:54 PM EST on February 25, 2017 (GMT -0500)
W. O'hara Township | | Change Station

Elev 1161 ft 40.52 °N, 79.93 °W | Updated 8 seconds ago

Overcast
Overcast
29.7 °F
Feels Like 30 °F
N
0.7
Wind Variable Wind from ENE
Gusts 2.5 mph

Today
High -- | Low -- °F
--% Chance of Precip.
Yesterday
High -- | Low -- °F
Precip. -- in
Pressure 29.91 in
Visibility 10.0 miles
Clouds Overcast 3200 ft
Windchill 30 °F
Dew Point 16 °F
Humidity 56%
Rainfall 0.20 in
Snow Depth Not available.
6:59 AM 6:06 PM
Waning Crescent, 0% visible
METAR KAGC 260153Z 28014G23KT 10SM OVC032 M01/M08 A2987 RMK AO2 PK WND 28029/0130 SLP127 T10061083
Pressure 29.91 in
Visibility 10.0 miles
Clouds Overcast 3200 ft
Windchill 30 °F
Dew Point 16 °F
Humidity 56%
Rainfall 0.20 in
Snow Depth Not available.
6:59 AM 6:06 PM
Waning Crescent, 0% visible
METAR KAGC 260153Z 28014G23KT 10SM OVC032 M01/M08 A2987 RMK AO2 PK WND 28029/0130 SLP127 T10061083

Get Your Daily Forecast Email!

Thanks for signing up!

Be on the lookout for a verification email in your inbox.

You'll start receiving the daily forecast at 8 AM.

×

10-Day Weather Forecast

Almanac

Astronomy

Feb. 25, 2017 Rise Set
Actual Time
Civil Twilight
Nautical Twilight
Astronomical Twilight
Moon
Length of Visible Light
Length of Day
Tomorrow will be .
, % of the Moon is Illuminated

Today's Extremes

State Highs State Lows

Community

WunderPhotos

Upload Photos

1,962,540 photos uploaded!

WunderBlog® & News

Nearby

Air Quality

  Air Quality AQ Index Pollutant
Not available.

Snow Depth

Station Depth Elevation

Earthquake Activity

City Distance Mag. Time & Date
Minimum magnitude displayed is 2.5.

Coastal Water Temperatures

Place Temperature

Stations

Nearby Weather Stations

Station Location Temp. Windchill Dew Point Humidity Wind Precip. Elev Updated Type
                   

Watches & Warnings

There are currently no watches in effect.